METAR Data
IDs: Format: Raw Decoded Include TAF

Data at: 1016 UTC 13 Aug 2022

ELLX 130950Z 10009KT 050V140 CAVOK 26/08 Q1017 NOSIG